Terminal Aerodrome Forecast
Issued by NWS

Home | Current Version | Previous Version | Text Only | Print | Product List | Glossary On
Versions: 1 2 3 4 5 6 7 8 9 10 11 12 13 14 15 16 17 18 19 20 21
000
FTUS43 KDMX 190340 AAB
TAFFOD
TAF AMD
KFOD 190340Z 1904/1924 07006KT P6SM VCTS BKN050CB OVC100
      TEMPO 1904/1905 VRB20G35KT 1SM +TSRA SCT025CB BKN040 OVC100
     FM190500 VRB03KT P6SM FEW180
     FM190900 VRB03KT 2SM BR SKC
      TEMPO 1911/1913 1/2SM FG SKC
     FM191400 VRB03KT 4SM BR SKC
     FM191500 VRB03KT P6SM FEW100=

USA.gov is the U.S. government's official web portal to all federal, state and local government web resources and services.